Time;durP1;ratioP1;P1;durP2;ratioP2;P2;SDS_P1;SDS_P2;PMS_P1;PMS_P2;Temp;Humidity;BMP_temperature;BMP_pressure;BME280_temperature;BME280_humidity;BME280_pressure;Samples;Min_cycle;Max_cycle;Signal;HPM_P1;HPM_P2
2021/08/31 00:00:21;;;;;;;18.77;10.25;;;;;;;16.23;77.00;102579.06;5024193;28;20576;-50
2021/08/31 00:02:46;;;;;;;22.02;10.20;;;;;;;16.22;77.22;102587.84;5019133;28;20112;-50
2021/08/31 00:05:13;;;;;;;20.98;10.40;;;;;;;16.27;77.08;102580.00;5025441;28;20107;-50
2021/08/31 00:07:38;;;;;;;22.45;10.13;;;;;;;16.33;77.02;102581.00;5017954;28;20511;-51
2021/08/31 00:10:06;;;;;;;22.63;10.80;;;;;;;16.36;77.03;102581.03;5023265;28;20029;-50
2021/08/31 00:12:31;;;;;;;19.70;10.27;;;;;;;16.35;76.95;102584.53;5028599;28;20627;-49
2021/08/31 00:14:56;;;;;;;19.08;10.00;;;;;;;16.38;76.59;102589.84;5025648;28;20032;-49
2021/08/31 00:17:25;;;;;;;24.08;10.10;;;;;;;16.33;76.83;102583.63;5024312;28;20877;-48
2021/08/31 00:19:50;;;;;;;25.17;9.98;;;;;;;16.35;77.11;102587.16;5021338;28;20418;-50
2021/08/31 00:22:15;;;;;;;20.58;9.88;;;;;;;16.37;76.83;102585.44;5019023;28;20373;-47
2021/08/31 00:24:41;;;;;;;19.80;9.68;;;;;;;16.33;76.82;102594.16;5023727;28;20042;-47
2021/08/31 00:27:07;;;;;;;18.08;10.65;;;;;;;16.29;77.16;102591.44;5022362;28;20489;-50
2021/08/31 00:29:33;;;;;;;23.27;10.15;;;;;;;16.24;76.84;102586.97;5024422;28;20032;-47
2021/08/31 00:31:58;;;;;;;23.75;10.65;;;;;;;16.19;76.87;102593.03;5020891;28;20449;-47
2021/08/31 00:34:23;;;;;;;27.10;10.80;;;;;;;16.13;77.49;102587.66;5023763;28;20043;-48
2021/08/31 00:36:49;;;;;;;19.98;9.50;;;;;;;16.11;76.88;102600.78;5021422;28;20491;-48
2021/08/31 00:39:14;;;;;;;23.05;9.93;;;;;;;16.05;77.03;102595.41;5019159;28;20268;-47
2021/08/31 00:41:40;;;;;;;27.05;10.65;;;;;;;16.01;77.13;102595.31;5022241;28;20029;-49
2021/08/31 00:44:05;;;;;;;19.23;10.18;;;;;;;15.97;77.18;102594.41;5019801;28;20269;-48
2021/08/31 00:46:31;;;;;;;23.80;9.38;;;;;;;15.90;77.30;102600.41;5021207;28;20106;-48
2021/08/31 00:48:56;;;;;;;24.65;11.48;;;;;;;15.86;77.90;102592.44;5023171;28;20033;-50
2021/08/31 00:51:24;;;;;;;24.27;10.45;;;;;;;15.83;77.76;102588.88;5016278;28;20020;-47
2021/08/31 00:53:50;;;;;;;24.20;11.27;;;;;;;15.82;77.74;102596.72;5024819;28;20483;-49
2021/08/31 00:56:17;;;;;;;22.45;10.85;;;;;;;15.78;77.78;102606.31;5017857;28;20029;-49
2021/08/31 00:58:42;;;;;;;25.77;11.73;;;;;;;15.58;78.92;102597.13;5024254;28;20036;-48
2021/08/31 01:01:08;;;;;;;25.30;11.98;;;;;;;15.47;79.77;102597.72;5021952;28;20242;-46
2021/08/31 01:03:33;;;;;;;24.60;11.90;;;;;;;15.38;80.13;102591.41;5022718;28;20122;-53
2021/08/31 01:06:00;;;;;;;28.77;11.60;;;;;;;15.36;80.16;102603.66;5021388;28;20051;-54
2021/08/31 01:08:29;;;;;;;24.40;11.43;;;;;;;15.37;79.92;102600.16;5022200;28;20041;-47
2021/08/31 01:10:57;;;;;;;25.10;11.27;;;;;;;15.34;80.08;102601.84;5021989;28;20067;-51
2021/08/31 01:13:23;;;;;;;26.77;11.80;;;;;;;15.31;80.30;102601.75;5017997;28;20041;-48
2021/08/31 01:15:49;;;;;;;24.50;11.10;;;;;;;15.29;80.06;102600.88;5022896;28;20025;-51
2021/08/31 01:18:22;;;;;;;28.60;11.30;;;;;;;15.26;79.95;102603.41;5023854;28;20040;-50
2021/08/31 01:20:54;;;;;;;27.40;11.88;;;;;;;15.24;80.09;102610.41;5017250;28;20439;-49
2021/08/31 01:23:20;;;;;;;28.55;11.77;;;;;;;15.25;80.31;102606.88;5025678;28;20374;-49
2021/08/31 01:25:47;;;;;;;20.67;11.07;;;;;;;15.34;79.80;102612.34;5014296;28;20086;-51
2021/08/31 01:28:26;;;;;;;26.83;12.25;;;;;;;15.32;80.49;102612.31;5019730;28;20388;-47
2021/08/31 01:30:52;;;;;;;21.90;11.60;;;;;;;15.42;80.33;102616.03;5023681;28;20033;-50
2021/08/31 01:33:19;;;;;;;23.55;11.48;;;;;;;15.47;80.44;102619.66;5017934;28;20120;-49
2021/08/31 01:35:45;;;;;;;26.08;12.18;;;;;;;15.52;80.56;102625.91;5021683;28;21652;-48
2021/08/31 01:38:10;;;;;;;27.50;12.20;;;;;;;15.59;80.50;102624.31;5028075;28;20032;-47
2021/08/31 01:40:36;;;;;;;29.02;11.65;;;;;;;15.63;80.32;102627.03;5028182;28;20071;-51
2021/08/31 01:43:01;;;;;;;25.90;11.73;;;;;;;15.65;80.53;102624.44;5023721;28;20068;-50
2021/08/31 01:45:27;;;;;;;28.42;11.40;;;;;;;15.73;80.05;102623.75;5025334;28;20091;-47
2021/08/31 01:47:53;;;;;;;23.40;11.15;;;;;;;15.77;80.02;102616.78;5058892;28;20401;-49
2021/08/31 01:50:18;;;;;;;21.98;10.30;;;;;;;15.78;79.67;102624.72;5026982;28;20090;-48
2021/08/31 01:52:43;;;;;;;30.17;11.40;;;;;;;15.72;79.73;102621.06;5024572;28;20036;-49
2021/08/31 01:55:09;;;;;;;28.42;10.48;;;;;;;15.68;79.60;102616.59;5025892;28;20112;-51
2021/08/31 01:57:35;;;;;;;23.50;10.88;;;;;;;15.65;79.94;102622.69;5027825;28;20060;-50
2021/08/31 02:00:00;;;;;;;22.83;11.43;;;;;;;15.62;80.14;102624.34;5024112;28;20132;-50
2021/08/31 02:02:26;;;;;;;25.90;10.25;;;;;;;15.61;80.21;102625.25;5025942;28;20250;-50
2021/08/31 02:04:51;;;;;;;21.95;10.63;;;;;;;15.64;79.96;102623.53;5022081;28;20031;-47
2021/08/31 02:07:17;;;;;;;23.67;9.95;;;;;;;15.61;79.44;102622.59;5031960;28;20028;-47
2021/08/31 02:09:42;;;;;;;26.48;11.13;;;;;;;15.53;80.38;102624.19;5028391;28;20485;-48
2021/08/31 02:12:08;;;;;;;26.50;10.70;;;;;;;15.51;80.15;102632.00;5020798;28;20056;-50
2021/08/31 02:14:33;;;;;;;22.77;10.52;;;;;;;15.53;80.17;102634.69;5052490;28;20104;-50
2021/08/31 02:16:58;;;;;;;22.67;11.07;;;;;;;15.49;80.25;102633.69;5026819;28;20018;-50
2021/08/31 02:19:24;;;;;;;25.33;10.80;;;;;;;15.45;79.65;102637.13;5018239;28;20041;-47
2021/08/31 02:21:49;;;;;;;25.00;11.25;;;;;;;15.39;79.94;102627.38;5025670;28;20029;-50
2021/08/31 02:24:16;;;;;;;28.27;10.88;;;;;;;15.37;80.01;102628.19;5028654;28;20033;-48
2021/08/31 02:26:42;;;;;;;29.38;10.77;;;;;;;15.29;80.04;102622.78;5024091;28;20040;-47
2021/08/31 02:29:07;;;;;;;23.30;10.32;;;;;;;15.27;79.98;102626.22;5023592;28;20068;-50
2021/08/31 02:31:32;;;;;;;24.05;10.02;;;;;;;15.23;79.75;102619.13;5022659;28;20116;-48
2021/08/31 02:33:58;;;;;;;25.40;11.35;;;;;;;15.14;80.11;102619.78;5025999;28;20040;-49
2021/08/31 02:36:23;;;;;;;23.88;10.40;;;;;;;15.12;80.01;102616.28;5018029;28;20095;-50
2021/08/31 02:38:48;;;;;;;18.45;8.25;;;;;;;15.04;79.46;102623.06;5023243;28;20120;-48
2021/08/31 02:41:14;;;;;;;19.48;9.70;;;;;;;14.95;79.49;102617.59;5023551;28;20112;-50
2021/08/31 02:43:39;;;;;;;20.67;9.15;;;;;;;14.86;79.59;102615.66;5025155;28;20031;-48
2021/08/31 02:46:05;;;;;;;22.95;9.77;;;;;;;14.88;79.60;102618.34;5021407;28;20022;-50
2021/08/31 02:48:30;;;;;;;22.35;10.23;;;;;;;14.75;79.67;102611.91;5021208;28;20119;-48
2021/08/31 02:50:56;;;;;;;20.88;9.40;;;;;;;14.80;79.63;102614.63;5028142;28;20021;-49
2021/08/31 02:53:21;;;;;;;21.20;10.18;;;;;;;14.69;79.55;102621.38;5022084;28;20117;-49
2021/08/31 02:55:47;;;;;;;23.70;10.05;;;;;;;14.74;79.28;102622.38;5025180;28;20031;-48
2021/08/31 02:58:12;;;;;;;21.33;8.77;;;;;;;14.71;79.36;102612.66;5025455;28;20035;-47
2021/08/31 03:00:41;;;;;;;18.80;9.88;;;;;;;14.68;79.24;102620.47;5026039;28;20554;-49
2021/08/31 03:03:07;;;;;;;17.15;9.05;;;;;;;14.64;79.37;102607.25;5020983;28;20424;-50
2021/08/31 03:05:32;;;;;;;20.48;9.82;;;;;;;14.59;79.42;102625.50;5028497;28;20288;-51
2021/08/31 03:07:58;;;;;;;17.00;8.75;;;;;;;14.57;79.54;102622.84;5025502;28;20090;-48
2021/08/31 03:10:24;;;;;;;16.35;8.75;;;;;;;14.46;79.80;102626.91;5023576;28;20533;-50
2021/08/31 03:12:49;;;;;;;18.77;9.15;;;;;;;14.37;80.06;102626.69;5024876;28;20044;-47
2021/08/31 03:15:14;;;;;;;19.08;9.45;;;;;;;14.33;80.13;102621.31;5024691;28;20025;-49
2021/08/31 03:17:40;;;;;;;22.10;8.65;;;;;;;14.32;80.25;102623.03;5025160;28;20029;-48
2021/08/31 03:20:06;;;;;;;23.27;10.88;;;;;;;14.33;80.14;102616.94;5025818;28;20544;-49
2021/08/31 03:22:31;;;;;;;18.40;9.18;;;;;;;14.28;80.37;102623.78;5024685;28;20032;-50
2021/08/31 03:24:57;;;;;;;18.55;9.82;;;;;;;14.26;80.20;102617.63;5023329;28;20037;-49
2021/08/31 03:27:22;;;;;;;18.50;8.30;;;;;;;14.26;80.16;102617.63;5025473;28;20519;-48
2021/08/31 03:29:48;;;;;;;21.00;8.90;;;;;;;14.23;80.29;102625.41;5017276;28;20178;-51
2021/08/31 03:32:13;;;;;;;21.33;10.43;;;;;;;14.22;80.21;102619.28;5023984;28;20305;-48
2021/08/31 03:34:39;;;;;;;14.82;8.55;;;;;;;14.20;80.29;102618.38;5010638;28;20041;-49
2021/08/31 03:37:04;;;;;;;18.05;8.82;;;;;;;14.18;80.19;102627.03;5022214;28;20030;-50
2021/08/31 03:39:30;;;;;;;17.58;8.88;;;;;;;14.20;80.05;102630.59;5019260;28;20426;-50
2021/08/31 03:41:56;;;;;;;24.08;10.35;;;;;;;14.25;79.96;102631.59;5029096;28;20032;-48
2021/08/31 03:44:21;;;;;;;15.23;8.63;;;;;;;14.25;79.72;102634.22;5021956;28;20045;-50
2021/08/31 03:46:46;;;;;;;17.45;9.80;;;;;;;14.23;79.99;102636.78;5021570;28;20124;-48
2021/08/31 03:49:12;;;;;;;18.63;9.30;;;;;;;14.25;79.90;102639.47;5021704;28;20035;-49
2021/08/31 03:51:37;;;;;;;21.58;9.52;;;;;;;14.24;80.04;102640.31;5022981;28;20532;-48
2021/08/31 03:54:02;;;;;;;24.33;10.48;;;;;;;14.25;79.60;102638.56;5027598;28;20040;-49
2021/08/31 03:56:28;;;;;;;20.85;10.07;;;;;;;14.22;80.04;102637.63;5022443;28;20045;-48
2021/08/31 03:58:53;;;;;;;21.83;10.75;;;;;;;14.21;80.70;102641.09;5022646;28;20029;-47
2021/08/31 04:01:19;;;;;;;26.77;11.75;;;;;;;14.39;80.66;102632.88;5020437;28;20021;-50
2021/08/31 04:03:44;;;;;;;32.30;13.15;;;;;;;14.45;81.05;102638.28;5022182;28;20029;-47
2021/08/31 04:06:10;;;;;;;20.52;10.38;;;;;;;14.33;80.76;102634.44;5021420;28;20404;-49
2021/08/31 04:08:35;;;;;;;26.55;11.50;;;;;;;14.34;81.31;102636.16;5023902;28;20037;-52
2021/08/31 04:11:01;;;;;;;24.15;11.15;;;;;;;14.36;81.15;102638.00;5024610;28;20456;-52
2021/08/31 04:13:26;;;;;;;31.40;11.98;;;;;;;14.38;81.74;102640.72;5018263;28;20047;-52
2021/08/31 04:15:51;;;;;;;29.20;11.73;;;;;;;14.42;81.47;102645.19;5021841;28;20033;-47
2021/08/31 04:18:16;;;;;;;22.70;10.90;;;;;;;14.41;81.00;102649.53;5022580;28;20025;-49
2021/08/31 04:20:42;;;;;;;22.67;10.10;;;;;;;14.38;81.01;102646.84;5022636;28;20067;-52
2021/08/31 04:23:07;;;;;;;22.13;10.02;;;;;;;14.38;80.38;102656.44;5019740;28;20593;-48
2021/08/31 04:25:33;;;;;;;24.05;10.30;;;;;;;14.39;80.10;102643.38;5024239;28;20557;-48
2021/08/31 04:27:58;;;;;;;24.15;10.88;;;;;;;14.25;80.56;102656.94;5015706;28;20029;-50
2021/08/31 04:30:24;;;;;;;41.63;15.13;;;;;;;14.35;82.06;102662.47;5021020;28;20089;-48
2021/08/31 04:32:49;;;;;;;27.13;12.48;;;;;;;14.46;82.03;102663.66;5022247;28;20040;-51
2021/08/31 04:35:15;;;;;;;27.80;10.50;;;;;;;14.42;80.95;102664.44;5025693;28;20029;-49
2021/08/31 04:37:40;;;;;;;20.75;10.15;;;;;;;14.38;80.73;102659.06;5020219;28;20519;-51
2021/08/31 04:40:06;;;;;;;36.10;14.27;;;;;;;14.37;81.23;102662.50;5017427;28;20038;-49
2021/08/31 04:42:32;;;;;;;35.33;13.93;;;;;;;14.44;81.71;102660.13;5019964;28;20529;-48
2021/08/31 04:44:57;;;;;;;23.40;10.52;;;;;;;14.46;81.06;102665.38;5020274;28;20033;-51
2021/08/31 04:47:23;;;;;;;22.88;10.88;;;;;;;14.37;80.62;102665.13;5019812;28;20094;-50
2021/08/31 04:49:48;;;;;;;20.92;10.82;;;;;;;14.27;80.29;102661.41;5022596;28;20854;-52
2021/08/31 04:52:15;;;;;;;20.85;8.82;;;;;;;14.20;80.42;102662.97;5020716;28;20390;-48
2021/08/31 04:54:43;;;;;;;22.90;9.90;;;;;;;14.16;80.26;102662.81;5025762;28;20049;-51
2021/08/31 04:57:08;;;;;;;23.50;11.07;;;;;;;14.14;80.44;102670.66;5026289;28;20110;-47
2021/08/31 04:59:33;;;;;;;24.73;11.20;;;;;;;14.12;80.56;102676.69;5022458;28;20024;-48
2021/08/31 05:01:59;;;;;;;23.30;11.75;;;;;;;14.09;80.77;102671.34;5022995;28;20056;-47
2021/08/31 05:04:28;;;;;;;23.73;11.18;;;;;;;14.09;80.58;102669.63;5016439;28;20116;-51
2021/08/31 05:06:57;;;;;;;26.88;11.00;;;;;;;14.07;80.53;102673.97;5023049;28;20884;-48
2021/08/31 05:09:23;;;;;;;23.13;10.98;;;;;;;14.08;80.76;102675.75;5027667;28;20499;-49
2021/08/31 05:11:48;;;;;;;32.88;12.38;;;;;;;14.12;80.78;102680.22;5020428;28;20117;-48
2021/08/31 05:14:13;;;;;;;30.90;14.35;;;;;;;14.12;80.96;102667.09;5019321;28;20084;-47
2021/08/31 05:16:39;;;;;;;33.63;14.43;;;;;;;14.25;81.08;102670.94;5023739;28;20109;-48
2021/08/31 05:19:07;;;;;;;30.55;13.50;;;;;;;14.24;81.16;102677.03;5024447;28;20032;-50
2021/08/31 05:21:33;;;;;;;29.00;13.98;;;;;;;14.38;80.70;102667.84;5023452;28;20029;-52
2021/08/31 05:23:58;;;;;;;25.27;13.38;;;;;;;14.44;80.50;102673.25;5019333;28;20036;-49
2021/08/31 05:26:24;;;;;;;29.52;13.55;;;;;;;14.45;80.34;102675.03;5055377;28;20044;-51
2021/08/31 05:28:49;;;;;;;27.27;12.43;;;;;;;14.49;80.16;102674.25;5022848;28;20052;-47
2021/08/31 05:31:15;;;;;;;25.75;12.50;;;;;;;14.53;80.33;102681.34;5020140;28;20041;-49
2021/08/31 05:33:40;;;;;;;29.13;13.38;;;;;;;14.60;80.14;102682.38;5018453;28;20314;-49
2021/08/31 05:36:06;;;;;;;26.23;12.40;;;;;;;14.66;80.33;102685.16;5022638;28;20030;-52
2021/08/31 05:38:31;;;;;;;29.73;14.07;;;;;;;14.76;80.14;102688.94;5019710;28;20052;-48
2021/08/31 05:40:57;;;;;;;26.83;14.68;;;;;;;14.82;80.15;102683.84;5024401;28;20614;-47
2021/08/31 05:43:22;;;;;;;25.30;13.35;;;;;;;14.86;80.22;102691.81;5022855;28;20079;-48
2021/08/31 05:45:48;;;;;;;28.55;13.23;;;;;;;14.90;80.04;102688.41;5017894;28;20017;-52
2021/08/31 05:48:13;;;;;;;27.10;13.80;;;;;;;14.97;80.15;102694.69;5017347;28;20025;-47
2021/08/31 05:50:38;;;;;;;33.50;13.43;;;;;;;15.13;80.29;102695.94;5018280;28;20442;-48
2021/08/31 05:53:04;;;;;;;31.98;13.68;;;;;;;15.22;80.07;102699.69;5020687;28;20424;-50
2021/08/31 05:55:29;;;;;;;27.75;12.60;;;;;;;15.20;80.41;102695.25;5020962;28;20389;-47
2021/08/31 05:57:55;;;;;;;22.05;12.25;;;;;;;15.25;80.82;102706.72;5018604;28;20025;-48
2021/08/31 06:00:20;;;;;;;28.60;11.90;;;;;;;15.33;80.58;102713.06;5016540;28;20996;-48
2021/08/31 06:02:45;;;;;;;24.40;11.43;;;;;;;15.43;80.48;102713.31;5020820;28;20128;-49
2021/08/31 06:05:11;;;;;;;18.25;10.85;;;;;;;15.55;79.97;102723.28;5015110;28;20551;-50
2021/08/31 06:07:41;;;;;;;24.98;11.38;;;;;;;15.68;79.68;102719.13;5024340;28;20446;-47
2021/08/31 06:10:07;;;;;;;22.45;10.13;;;;;;;15.02;82.84;102725.47;5019398;28;20065;-53
2021/08/31 06:12:33;;;;;;;20.75;9.18;;;;;;;16.39;79.31;102730.25;5022661;28;20444;-48
2021/08/31 06:14:58;;;;;;;19.52;8.18;;;;;;;17.51;75.45;102718.97;5015137;28;20051;-49
2021/08/31 06:17:25;;;;;;;17.10;7.10;;;;;;;18.54;70.45;102716.75;5026388;28;20029;-50
2021/08/31 06:19:50;;;;;;;16.60;6.78;;;;;;;19.46;66.98;102726.38;5021907;28;20656;-49
2021/08/31 06:22:16;;;;;;;15.27;6.18;;;;;;;20.24;63.58;102720.53;5022033;28;20084;-47
2021/08/31 06:24:41;;;;;;;15.77;6.30;;;;;;;20.87;60.86;102716.22;5022494;28;20090;-49
2021/08/31 06:27:07;;;;;;;12.68;5.95;;;;;;;21.31;60.00;102727.72;5022797;28;20072;-49
2021/08/31 06:29:32;;;;;;;18.90;6.00;;;;;;;21.93;57.36;102723.13;5021303;28;20245;-47
2021/08/31 06:31:57;;;;;;;14.23;5.38;;;;;;;22.31;57.09;102718.53;5025554;28;20032;-48
2021/08/31 06:34:23;;;;;;;12.95;5.68;;;;;;;22.80;55.47;102724.44;5026678;28;20151;-47
2021/08/31 06:36:49;;;;;;;12.10;5.22;;;;;;;23.19;54.61;102720.50;5020267;28;20628;-49
2021/08/31 06:39:14;;;;;;;11.32;4.88;;;;;;;23.38;52.27;102730.06;5025916;28;20093;-51
2021/08/31 06:41:40;;;;;;;14.95;5.20;;;;;;;23.66;51.71;102728.03;5024351;28;20053;-50
2021/08/31 06:44:05;;;;;;;19.98;5.03;;;;;;;23.61;51.68;102731.63;5023298;28;20365;-49
2021/08/31 06:46:31;;;;;;;17.35;5.22;;;;;;;23.81;51.10;102724.31;5022235;28;20473;-50
2021/08/31 06:48:56;;;;;;;12.30;4.93;;;;;;;23.91;51.33;102727.75;5025554;28;20053;-47
2021/08/31 06:51:21;;;;;;;13.48;4.80;;;;;;;24.06;51.09;102727.53;5020010;28;20873;-51
2021/08/31 06:53:47;;;;;;;12.35;4.97;;;;;;;24.31;50.13;102723.66;5025645;28;20413;-49
2021/08/31 06:56:12;;;;;;;10.15;4.82;;;;;;;24.46;49.90;102728.75;5019006;28;20017;-51
2021/08/31 06:58:38;;;;;;;14.80;4.63;;;;;;;24.50;49.31;102730.50;5026350;28;20067;-49
2021/08/31 07:01:03;;;;;;;14.40;5.10;;;;;;;24.35;50.70;102729.81;5028306;28;20268;-51
2021/08/31 07:03:29;;;;;;;13.68;4.90;;;;;;;24.57;50.02;102734.84;5019427;28;20036;-48
2021/08/31 07:05:54;;;;;;;11.35;4.57;;;;;;;24.59;49.84;102734.78;5025526;28;20025;-51
2021/08/31 07:08:20;;;;;;;13.63;4.65;;;;;;;25.14;49.95;102732.13;5023609;28;20035;-50
2021/08/31 07:10:45;;;;;;;10.50;4.40;;;;;;;25.54;47.81;102734.94;5022132;28;21293;-49
2021/08/31 07:13:13;;;;;;;13.80;4.50;;;;;;;25.36;47.49;102729.97;5026356;28;20033;-49
2021/08/31 07:15:38;;;;;;;13.65;4.45;;;;;;;24.50;48.83;102735.84;5022877;28;20021;-48
2021/08/31 07:18:04;;;;;;;12.85;4.10;;;;;;;24.58;48.81;102738.34;5023686;28;20517;-47
2021/08/31 07:20:29;;;;;;;14.32;4.13;;;;;;;24.66;48.55;102745.34;5021407;28;20129;-48
2021/08/31 07:22:58;;;;;;;12.18;4.07;;;;;;;24.64;48.58;102741.81;5025696;28;20145;-53
2021/08/31 07:25:24;;;;;;;13.90;4.40;;;;;;;24.78;48.33;102741.59;5022639;28;20029;-51
2021/08/31 07:27:50;;;;;;;10.65;3.83;;;;;;;25.13;47.48;102738.38;5023832;28;20095;-50
2021/08/31 07:30:15;;;;;;;12.25;3.67;;;;;;;24.87;48.73;102744.13;5017937;28;20025;-51
2021/08/31 07:32:41;;;;;;;12.80;4.10;;;;;;;24.32;49.54;102737.88;5022197;28;20068;-52
2021/08/31 07:35:07;;;;;;;13.00;3.92;;;;;;;24.58;49.33;102743.69;5023084;28;20061;-55
2021/08/31 07:37:33;;;;;;;14.40;4.60;;;;;;;24.40;48.33;102739.50;5021902;28;20048;-51
2021/08/31 07:39:58;;;;;;;10.20;4.07;;;;;;;24.67;46.84;102747.13;5019767;28;20033;-54
2021/08/31 07:42:24;;;;;;;10.25;4.00;;;;;;;24.12;49.09;102743.44;5024670;28;20036;-52
2021/08/31 07:44:49;;;;;;;13.02;4.40;;;;;;;23.38;50.39;102747.81;5018602;28;20124;-51
2021/08/31 07:47:15;;;;;;;15.30;4.40;;;;;;;23.64;50.09;102745.81;5024291;28;20103;-51
2021/08/31 07:49:41;;;;;;;11.75;4.45;;;;;;;23.97;50.17;102744.50;5024126;28;20056;-53
2021/08/31 07:52:13;;;;;;;14.68;3.90;;;;;;;24.37;48.96;102744.91;5024612;28;20222;-53
2021/08/31 07:54:39;;;;;;;11.10;3.90;;;;;;;23.68;50.38;102747.53;5021077;28;20039;-49
2021/08/31 07:57:04;;;;;;;14.80;4.35;;;;;;;22.91;51.53;102742.94;5024433;28;20032;-49
2021/08/31 07:59:30;;;;;;;12.45;4.35;;;;;;;22.96;52.78;102754.41;5021896;28;20365;-53
2021/08/31 08:01:55;;;;;;;13.82;4.45;;;;;;;22.54;54.19;102743.19;5020171;28;20028;-49
2021/08/31 08:04:21;;;;;;;11.23;4.40;;;;;;;22.86;54.29;102750.09;5013069;28;20077;-52
2021/08/31 08:06:46;;;;;;;8.75;4.00;;;;;;;22.67;54.02;102746.63;5019914;28;20572;-50
2021/08/31 08:09:12;;;;;;;12.50;4.32;;;;;;;21.68;55.64;102760.38;5020655;28;20313;-48
2021/08/31 08:11:37;;;;;;;11.00;4.20;;;;;;;22.03;54.30;102754.97;5024474;28;20029;-47
2021/08/31 08:14:03;;;;;;;15.10;4.57;;;;;;;21.86;54.63;102762.09;5019548;28;20584;-54
2021/08/31 08:16:29;;;;;;;15.60;4.82;;;;;;;21.79;56.76;102763.88;5020451;28;20111;-49
2021/08/31 08:18:54;;;;;;;14.38;4.50;;;;;;;22.03;55.27;102765.59;5018369;28;20112;-52
2021/08/31 08:21:20;;;;;;;15.48;4.93;;;;;;;22.02;55.29;102768.25;5023846;28;20173;-51
2021/08/31 08:23:46;;;;;;;16.75;4.72;;;;;;;21.66;55.48;102771.88;5019934;28;20034;-48
2021/08/31 08:26:12;;;;;;;11.52;4.70;;;;;;;21.97;54.30;102772.69;5016209;28;20032;-49
2021/08/31 08:28:38;;;;;;;13.35;4.72;;;;;;;21.53;56.26;102771.00;5022109;28;20369;-48
2021/08/31 08:31:04;;;;;;;15.40;5.32;;;;;;;21.27;57.19;102767.53;5020397;28;20511;-48
2021/08/31 08:33:32;;;;;;;15.57;5.43;;;;;;;21.34;56.71;102772.84;5021627;28;20033;-48
2021/08/31 08:35:58;;;;;;;13.82;5.20;;;;;;;21.84;57.19;102769.16;5020402;28;20654;-52
2021/08/31 08:38:24;;;;;;;18.95;6.00;;;;;;;21.76;55.87;102776.28;5022713;28;20650;-47
2021/08/31 08:40:50;;;;;;;13.60;5.40;;;;;;;21.86;55.52;102778.03;5017429;28;20036;-47
2021/08/31 08:43:16;;;;;;;10.88;5.20;;;;;;;22.04;54.87;102770.00;5016195;28;20032;-49
2021/08/31 08:45:46;;;;;;;16.05;5.40;;;;;;;22.50;53.87;102772.47;5024537;28;20032;-51
2021/08/31 08:48:30;;;;;;;12.90;5.60;;;;;;;22.72;53.16;102768.78;5019882;28;20504;-48
2021/08/31 08:50:56;;;;;;;;;;;;;;;22.32;53.05;102777.88;5023428;28;20164;-47
2021/08/31 08:53:22;;;;;;;12.57;4.90;;;;;;;22.17;54.21;102776.16;5017079;28;19916;-48
2021/08/31 08:55:48;;;;;;;16.60;5.20;;;;;;;22.05;53.01;102776.22;5020770;28;20036;-47
2021/08/31 08:58:14;;;;;;;13.85;5.80;;;;;;;22.10;53.65;102780.63;5022033;28;20084;-47
2021/08/31 09:01:12;;;;;;;11.90;5.40;;;;;;;21.85;54.62;102779.78;5023264;28;20021;-48
2021/08/31 09:03:40;;;;;;;13.68;5.38;;;;;;;21.76;54.66;102787.78;4988869;28;20409;-48
2021/08/31 09:06:16;;;;;;;14.95;5.97;;;;;;;21.74;54.44;102788.69;5022999;28;20075;-50
2021/08/31 09:08:53;;;;;;;13.63;5.40;;;;;;;22.02;54.51;102789.50;5020767;28;20153;-50
2021/08/31 09:11:26;;;;;;;11.38;5.53;;;;;;;22.36;54.85;102780.50;5027124;28;20041;-47
2021/08/31 09:13:53;;;;;;;16.25;6.18;;;;;;;21.95;54.14;102793.97;5023394;28;20052;-50
2021/08/31 09:16:23;;;;;;;14.23;5.65;;;;;;;22.11;54.07;102792.13;5019718;28;20602;-50
2021/08/31 09:18:50;;;;;;;15.10;5.82;;;;;;;22.68;51.86;102782.97;5023560;28;20405;-50
2021/08/31 09:21:20;;;;;;;14.23;5.95;;;;;;;22.76;51.97;102785.59;5020496;28;20086;-51
2021/08/31 09:23:49;;;;;;;13.27;5.57;;;;;;;22.49;53.37;102789.28;4963237;28;20152;-49
2021/08/31 09:26:18;;;;;;;10.68;5.20;;;;;;;22.61;52.89;102786.56;4981791;28;20052;-51
2021/08/31 09:28:45;;;;;;;16.20;5.65;;;;;;;22.36;52.63;102790.25;4973655;28;20493;-50
2021/08/31 09:31:19;;;;;;;12.48;5.43;;;;;;;23.19;53.25;102792.34;4958755;28;20045;-54
2021/08/31 09:33:49;;;;;;;13.50;6.00;;;;;;;23.44;51.16;102788.56;5000053;28;20057;-53
2021/08/31 09:36:15;;;;;;;11.85;6.18;;;;;;;22.97;52.50;102799.63;5003366;28;20345;-50
2021/08/31 09:38:56;;;;;;;16.45;6.68;;;;;;;23.06;53.04;102791.56;5007310;28;20457;-49
2021/08/31 09:41:32;;;;;;;15.75;6.50;;;;;;;22.65;52.59;102793.63;4997229;28;20765;-48
2021/08/31 09:44:00;;;;;;;13.75;7.18;;;;;;;22.58;53.05;102805.19;5002363;28;20024;-50
2021/08/31 09:46:47;;;;;;;16.60;6.70;;;;;;;22.53;53.74;102799.91;5001275;28;20461;-49
2021/08/31 09:49:29;;;;;;;20.13;6.60;;;;;;;22.96;52.42;102792.56;5003576;28;20071;-49
2021/08/31 09:52:01;;;;;;;13.75;6.30;;;;;;;23.06;52.38;102798.66;5004371;28;20037;-52
2021/08/31 09:54:27;;;;;;;13.50;6.40;;;;;;;22.85;52.99;102802.38;5000990;28;20064;-47
2021/08/31 09:56:52;;;;;;;15.82;6.35;;;;;;;22.79;53.61;102790.91;5006465;28;20120;-48
2021/08/31 09:59:18;;;;;;;16.20;5.75;;;;;;;22.69;53.81;102792.69;5005665;28;20549;-51
2021/08/31 10:01:43;;;;;;;13.35;5.85;;;;;;;22.65;53.83;102793.63;4999463;28;20474;-48
2021/08/31 10:04:09;;;;;;;15.93;6.35;;;;;;;22.83;54.14;102788.22;5005881;28;20029;-48
2021/08/31 10:06:34;;;;;;;17.73;6.22;;;;;;;22.86;53.11;102792.63;5005722;28;20201;-50
2021/08/31 10:09:00;;;;;;;14.07;5.78;;;;;;;22.92;55.04;102793.47;5004702;28;20513;-52
2021/08/31 10:11:25;;;;;;;18.30;6.05;;;;;;;23.00;53.59;102798.72;4999464;28;20375;-51
2021/08/31 10:13:51;;;;;;;13.52;6.00;;;;;;;23.13;54.08;102795.06;5005307;28;20167;-50
2021/08/31 10:16:17;;;;;;;14.55;5.30;;;;;;;23.32;52.72;102801.13;5003841;28;20029;-51
2021/08/31 10:18:42;;;;;;;18.90;5.60;;;;;;;23.12;53.28;102798.63;5002070;28;20226;-54
2021/08/31 10:21:10;;;;;;;12.75;5.63;;;;;;;23.01;53.14;102798.72;5007847;28;20048;-47
2021/08/31 10:23:42;;;;;;;15.00;5.80;;;;;;;22.53;53.17;102805.22;5032309;28;20481;-50
2021/08/31 10:26:33;;;;;;;15.15;5.63;;;;;;;22.97;53.80;102802.31;5008009;28;20383;-50
2021/08/31 10:29:16;;;;;;;15.77;5.38;;;;;;;22.79;53.44;102809.53;5000331;28;20160;-48
2021/08/31 10:31:44;;;;;;;11.30;5.27;;;;;;;22.55;53.47;102808.75;5003975;28;20038;-54
2021/08/31 10:34:29;;;;;;;13.27;5.40;;;;;;;22.54;54.43;102808.75;5000928;28;20571;-49
2021/08/31 10:37:04;;;;;;;14.43;5.10;;;;;;;22.65;52.95;102807.78;5006530;28;20033;-52
2021/08/31 10:39:50;;;;;;;15.52;5.43;;;;;;;22.97;53.24;102806.72;5011604;28;20037;-50
2021/08/31 10:42:24;;;;;;;14.82;5.38;;;;;;;22.89;51.36;102812.09;5004605;28;20037;-49
2021/08/31 10:44:50;;;;;;;15.50;5.43;;;;;;;22.92;52.57;102817.41;5030850;28;20384;-47
2021/08/31 10:47:17;;;;;;;11.95;5.45;;;;;;;22.50;53.18;102815.00;5036435;28;20021;-51
2021/08/31 10:49:58;;;;;;;16.73;5.60;;;;;;;22.60;52.86;102814.91;5005420;28;20136;-49
2021/08/31 15:14:46;;;;;;;10.27;3.30;;;;;;;19.82;61.02;102874.78;5042562;28;21002;-51
2021/08/31 15:17:11;;;;;;;9.60;3.50;;;;;;;19.68;61.90;102868.50;5045339;28;20033;-51
2021/08/31 15:19:37;;;;;;;9.90;3.35;;;;;;;19.73;62.10;102870.31;5040866;28;20085;-53
2021/08/31 15:22:03;;;;;;;14.38;3.83;;;;;;;19.78;62.21;102865.03;5039286;28;20087;-52
2021/08/31 15:24:28;;;;;;;11.35;3.70;;;;;;;19.93;62.79;102873.09;5031408;28;20064;-50
2021/08/31 15:26:53;;;;;;;16.58;3.70;;;;;;;19.99;62.25;102866.94;5036503;28;20976;-50
2021/08/31 15:29:19;;;;;;;13.10;3.60;;;;;;;19.83;61.89;102872.13;5034465;28;20017;-49
2021/08/31 15:31:44;;;;;;;10.40;3.65;;;;;;;19.95;62.00;102875.72;5040697;28;20033;-51
2021/08/31 15:34:10;;;;;;;11.02;3.85;;;;;;;19.80;62.10;102868.59;5041135;28;20064;-50